createdAt,value
2022-09-15T00:01:27.889Z,15.31
2022-09-15T00:03:56.585Z,15.30
2022-09-15T00:06:24.859Z,15.27
2022-09-15T00:08:52.903Z,15.28
2022-09-15T00:11:27.001Z,15.27
2022-09-15T00:13:59.978Z,15.25
2022-09-15T00:16:33.104Z,15.24
2022-09-15T00:19:01.881Z,15.15
2022-09-15T00:21:33.508Z,15.05
2022-09-15T00:24:04.662Z,15.00
2022-09-15T00:26:34.263Z,14.93
2022-09-15T00:29:02.938Z,14.92
2022-09-15T00:31:32.598Z,14.88
2022-09-15T00:34:04.883Z,14.75
2022-09-15T00:36:33.494Z,14.64
2022-09-15T00:39:01.622Z,14.65
2022-09-15T00:41:30.857Z,14.59
2022-09-15T00:44:05.112Z,14.58
2022-09-15T00:46:36.499Z,14.52
2022-09-15T00:49:12.425Z,14.51
2022-09-15T00:51:47.681Z,14.48
2022-09-15T00:54:21.659Z,14.57
2022-09-15T00:56:55.181Z,14.58
2022-09-15T00:59:30.525Z,14.59
2022-09-15T01:02:11.489Z,14.52
2022-09-15T01:04:39.763Z,14.57
2022-09-15T01:07:13.255Z,14.68
2022-09-15T01:09:51.045Z,14.69
2022-09-15T01:12:20.245Z,14.64
2022-09-15T01:14:49.378Z,14.68
2022-09-15T01:17:34.303Z,14.72
2022-09-15T01:20:40.360Z,14.80
2022-09-15T01:24:02.010Z,14.87
2022-09-15T01:27:00.368Z,14.96
2022-09-15T01:30:02.126Z,15.02
2022-09-15T01:33:03.205Z,15.09
2022-09-15T01:35:52.354Z,15.21
2022-09-15T01:38:40.156Z,15.18
2022-09-15T01:41:15.673Z,15.26
2022-09-15T01:43:50.222Z,15.35
2022-09-15T01:46:24.404Z,15.35
2022-09-15T01:48:56.424Z,15.31
2022-09-15T01:51:31.165Z,15.32
2022-09-15T01:54:03.604Z,15.40
2022-09-15T01:56:31.974Z,15.41
2022-09-15T01:59:00.417Z,15.37
2022-09-15T02:01:43.684Z,15.39
2022-09-15T02:04:21.668Z,15.40
2022-09-15T02:06:57.596Z,15.43
2022-09-15T02:09:34.714Z,15.42
2022-09-15T02:12:18.704Z,15.49
2022-09-15T02:14:56.181Z,15.54
2022-09-15T02:17:32.585Z,15.65
2022-09-15T02:20:16.086Z,15.72
2022-09-15T02:22:53.195Z,15.75
2022-09-15T02:25:30.577Z,15.64
2022-09-15T02:28:05.822Z,15.62
2022-09-15T02:30:41.270Z,15.59
2022-09-15T02:33:15.842Z,15.49
2022-09-15T02:35:46.440Z,15.50
2022-09-15T02:38:15.465Z,15.50
2022-09-15T02:40:44.921Z,15.55
2022-09-15T02:43:18.880Z,15.47
2022-09-15T02:45:47.194Z,15.55
2022-09-15T02:48:17.751Z,15.59
2022-09-15T02:50:45.583Z,15.57
2022-09-15T02:53:13.767Z,15.68
2022-09-15T02:55:43.475Z,15.77
2022-09-15T02:58:11.535Z,15.79
2022-09-15T03:00:40.745Z,15.84
2022-09-15T03:03:08.674Z,15.92
2022-09-15T03:05:38.577Z,15.99
2022-09-15T03:08:06.531Z,16.15
2022-09-15T03:10:34.665Z,16.25
2022-09-15T03:13:02.530Z,16.27
2022-09-15T03:15:30.509Z,16.24
2022-09-15T03:17:58.339Z,16.06
2022-09-15T03:20:28.568Z,16.02
2022-09-15T03:22:57.840Z,16.08
2022-09-15T03:25:27.092Z,16.04
2022-09-15T03:27:55.068Z,16.07
2022-09-15T03:30:22.989Z,16.04
2022-09-15T03:32:50.801Z,16.01
2022-09-15T03:35:18.708Z,16.05
2022-09-15T03:37:50.467Z,15.90
2022-09-15T03:40:19.918Z,16.01
2022-09-15T03:42:50.805Z,15.93
2022-09-15T03:45:18.917Z,15.84
2022-09-15T03:47:47.265Z,15.77
2022-09-15T03:50:15.215Z,15.82
2022-09-15T03:52:43.434Z,15.74
2022-09-15T03:55:13.481Z,15.65
2022-09-15T03:57:43.578Z,15.62
2022-09-15T04:00:14.708Z,15.52
2022-09-15T04:02:44.127Z,15.45
2022-09-15T04:05:13.291Z,15.43
2022-09-15T04:07:41.866Z,15.45
2022-09-15T04:10:11.161Z,15.46
2022-09-15T04:12:39.181Z,15.52
2022-09-15T04:15:10.939Z,15.52
2022-09-15T04:17:38.813Z,15.59
2022-09-15T04:20:09.481Z,15.67
2022-09-15T04:22:37.292Z,15.64
2022-09-15T04:25:09.495Z,15.66
2022-09-15T04:27:38.599Z,15.68
2022-09-15T04:30:10.432Z,15.80
2022-09-15T04:32:38.296Z,15.94
2022-09-15T04:35:08.229Z,15.90
2022-09-15T04:37:37.230Z,15.79
2022-09-15T04:40:06.577Z,15.84
2022-09-15T04:42:34.388Z,15.90
2022-09-15T04:45:02.254Z,15.86
2022-09-15T04:47:31.424Z,15.81
2022-09-15T04:49:59.409Z,15.82
2022-09-15T04:52:27.185Z,15.82
2022-09-15T04:54:55.343Z,15.77
2022-09-15T04:57:23.178Z,15.79
2022-09-15T04:59:51.142Z,15.72
2022-09-15T05:02:19.123Z,15.86
2022-09-15T05:04:52.355Z,15.88
2022-09-15T05:07:20.451Z,15.75
2022-09-15T05:09:48.289Z,15.88
2022-09-15T05:12:16.175Z,15.88
2022-09-15T05:14:44.037Z,15.92
2022-09-15T05:17:11.964Z,16.07
2022-09-15T05:19:40.353Z,15.96
2022-09-15T05:22:09.487Z,15.86
2022-09-15T05:24:37.230Z,15.87
2022-09-15T05:27:05.760Z,15.90
2022-09-15T05:29:33.671Z,15.93
2022-09-15T05:32:02.029Z,16.03
2022-09-15T05:34:29.943Z,15.96
2022-09-15T05:36:57.875Z,16.15
2022-09-15T05:39:28.839Z,16.17
2022-09-15T05:41:57.094Z,16.15
2022-09-15T05:44:24.884Z,16.23
2022-09-15T05:46:52.776Z,16.23
2022-09-15T05:49:20.548Z,16.21
2022-09-15T05:51:48.295Z,16.21
2022-09-15T05:54:16.144Z,16.30
2022-09-15T05:56:45.339Z,16.28
2022-09-15T05:59:13.529Z,16.20
2022-09-15T06:01:43.955Z,16.24
2022-09-15T06:04:12.339Z,16.35
2022-09-15T06:06:40.373Z,16.47
2022-09-15T06:09:08.141Z,16.53
2022-09-15T06:11:36.095Z,16.57
2022-09-15T06:14:05.990Z,16.54
2022-09-15T06:16:35.679Z,16.57
2022-09-15T06:19:03.985Z,16.60
2022-09-15T06:21:33.286Z,16.68
2022-09-15T06:24:03.467Z,16.72
2022-09-15T06:26:31.247Z,16.74
2022-09-15T06:29:01.490Z,16.77
2022-09-15T06:31:32.911Z,16.84
2022-09-15T06:34:01.334Z,16.93
2022-09-15T06:36:30.833Z,16.99
2022-09-15T06:38:59.608Z,16.92
2022-09-15T06:41:35.361Z,17.07
2022-09-15T06:44:15.067Z,17.13
2022-09-15T06:46:44.519Z,17.19
2022-09-15T06:49:12.424Z,17.27
2022-09-15T06:51:40.436Z,17.20
2022-09-15T06:54:08.625Z,17.19
2022-09-15T06:56:38.500Z,17.29
2022-09-15T06:59:06.564Z,17.42
2022-09-15T07:01:34.559Z,17.44
2022-09-15T07:04:09.622Z,17.56
2022-09-15T07:06:39.651Z,17.56
2022-09-15T07:09:08.075Z,17.42
2022-09-15T07:11:36.235Z,17.41
2022-09-15T07:14:04.882Z,17.54
2022-09-15T07:16:33.496Z,17.56
2022-09-15T07:19:03.821Z,17.54
2022-09-15T07:21:31.782Z,17.51
2022-09-15T07:24:02.717Z,17.77
2022-09-15T07:26:34.704Z,17.77
2022-09-15T07:29:06.594Z,18.03
2022-09-15T07:31:38.319Z,18.12
2022-09-15T07:34:07.974Z,17.98
2022-09-15T07:36:36.108Z,18.06
2022-09-15T07:39:05.117Z,18.25
2022-09-15T07:41:33.490Z,18.40
2022-09-15T07:44:04.439Z,18.29
2022-09-15T07:46:33.633Z,18.52
2022-09-15T07:49:03.602Z,18.59
2022-09-15T07:51:32.846Z,18.53
2022-09-15T07:54:00.732Z,18.63
2022-09-15T07:56:28.588Z,18.74
2022-09-15T07:58:56.917Z,18.51
2022-09-15T08:01:24.831Z,18.57
2022-09-15T08:03:52.959Z,18.42
2022-09-15T08:06:23.192Z,18.53
2022-09-15T08:08:59.296Z,18.61
2022-09-15T08:11:29.983Z,18.62
2022-09-15T08:14:02.604Z,18.90
2022-09-15T08:16:31.302Z,18.69
2022-09-15T08:19:00.197Z,18.92
2022-09-15T08:21:29.099Z,18.90
2022-09-15T08:24:01.147Z,18.77
2022-09-15T08:26:30.851Z,18.80
2022-09-15T08:28:59.350Z,18.91
2022-09-15T08:31:27.355Z,19.05
2022-09-15T08:33:56.737Z,18.95
2022-09-15T08:36:27.929Z,19.06
2022-09-15T08:38:56.529Z,19.44
2022-09-15T08:41:32.209Z,19.79
2022-09-15T08:44:20.996Z,19.84
2022-09-15T08:46:56.694Z,19.86
2022-09-15T08:49:50.590Z,19.48
2022-09-15T08:52:26.876Z,19.38
2022-09-15T08:55:01.214Z,19.66
2022-09-15T08:57:30.583Z,19.70
2022-09-15T08:59:59.580Z,19.58
2022-09-15T09:02:44.994Z,19.62
2022-09-15T09:05:34.264Z,19.70
2022-09-15T09:08:26.644Z,19.89
2022-09-15T09:11:00.732Z,19.71
2022-09-15T09:13:42.781Z,20.07
2022-09-15T09:16:37.015Z,20.27
2022-09-15T09:19:47.392Z,19.99
2022-09-15T09:22:22.002Z,20.14
2022-09-15T09:24:55.244Z,20.34
2022-09-15T09:27:28.865Z,20.67
2022-09-15T09:30:03.822Z,20.90
2022-09-15T09:32:40.940Z,21.21
2022-09-15T09:35:23.870Z,21.64
2022-09-15T09:37:53.362Z,21.51
2022-09-15T09:40:23.081Z,21.11
2022-09-15T09:42:51.021Z,20.88
2022-09-15T09:45:20.248Z,20.41
2022-09-15T09:47:48.102Z,20.15
2022-09-15T09:50:36.819Z,19.80
2022-09-15T09:53:27.163Z,20.01
2022-09-15T09:56:15.903Z,20.13
2022-09-15T09:58:44.604Z,20.07
2022-09-15T10:01:16.425Z,20.20
2022-09-15T10:03:45.490Z,20.13
2022-09-15T10:06:18.782Z,20.27
2022-09-15T10:08:58.677Z,20.23
2022-09-15T10:11:44.368Z,20.80
2022-09-15T10:14:27.683Z,21.16
2022-09-15T10:17:00.793Z,21.33
2022-09-15T10:19:33.106Z,21.35
2022-09-15T10:22:04.206Z,21.32
2022-09-15T10:24:35.211Z,21.42
2022-09-15T10:27:18.988Z,21.32
2022-09-15T10:29:47.893Z,21.57
2022-09-15T10:32:25.722Z,21.50
2022-09-15T10:35:11.367Z,21.10
2022-09-15T10:38:02.943Z,21.37
2022-09-15T10:40:39.374Z,21.48
2022-09-15T10:43:32.774Z,22.20
2022-09-15T10:46:08.007Z,22.61
2022-09-15T10:48:55.725Z,22.86
2022-09-15T10:51:46.370Z,23.09
2022-09-15T10:54:49.699Z,23.20
2022-09-15T10:57:37.761Z,23.15
2022-09-15T11:00:12.010Z,23.24
2022-09-15T11:03:18.007Z,22.89
2022-09-15T11:06:05.012Z,22.54
2022-09-15T11:09:06.818Z,22.38
2022-09-15T11:11:48.577Z,22.42
2022-09-15T11:14:37.214Z,22.04
2022-09-15T11:17:26.925Z,21.66
2022-09-15T11:20:44.473Z,21.16
2022-09-15T11:23:20.663Z,20.92
2022-09-15T11:25:59.974Z,20.61
2022-09-15T11:28:37.657Z,20.52
2022-09-15T11:31:16.415Z,20.38
2022-09-15T11:33:55.147Z,20.19
2022-09-15T11:36:31.969Z,20.38
2022-09-15T11:39:12.557Z,20.27
2022-09-15T11:41:48.320Z,20.41
2022-09-15T11:44:25.086Z,20.19
2022-09-15T11:47:13.952Z,19.94
2022-09-15T11:49:49.405Z,19.81
2022-09-15T11:52:49.696Z,20.06
2022-09-15T11:55:31.868Z,20.02
2022-09-15T11:58:22.119Z,20.23
2022-09-15T12:01:00.025Z,20.67
2022-09-15T12:03:37.674Z,20.67
2022-09-15T12:06:14.976Z,20.83
2022-09-15T12:08:53.376Z,20.42
2022-09-15T12:11:26.711Z,20.37
2022-09-15T12:13:55.900Z,20.31
2022-09-15T12:16:26.345Z,20.43
2022-09-15T12:19:01.944Z,20.29
2022-09-15T12:21:37.351Z,20.24
2022-09-15T12:24:17.650Z,20.62
2022-09-15T12:26:47.408Z,21.54
2022-09-15T12:29:42.013Z,21.70
2022-09-15T12:32:24.610Z,21.91
2022-09-15T12:35:03.716Z,21.68
2022-09-15T12:37:41.474Z,21.50
2022-09-15T12:40:33.649Z,21.39
2022-09-15T12:43:16.420Z,21.23
2022-09-15T12:45:58.163Z,21.24
2022-09-15T12:48:30.992Z,21.02
2022-09-15T12:51:04.920Z,20.75
2022-09-15T12:53:38.060Z,21.02
2022-09-15T12:56:20.663Z,20.96
2022-09-15T12:58:52.117Z,21.41
2022-09-15T13:01:48.395Z,21.97
2022-09-15T13:04:58.032Z,22.12
2022-09-15T13:07:37.510Z,21.79
2022-09-15T13:10:37.050Z,21.55
2022-09-15T13:13:20.116Z,21.51
2022-09-15T13:15:53.436Z,21.21
2022-09-15T13:18:22.208Z,20.94
2022-09-15T13:21:00.249Z,20.96
2022-09-15T13:23:35.671Z,20.88
2022-09-15T13:26:12.136Z,20.66
2022-09-15T13:28:40.341Z,20.56
2022-09-15T13:31:27.415Z,20.57
2022-09-15T13:41:13.668Z,20.49
2022-09-15T13:44:20.989Z,20.64
2022-09-15T13:47:05.247Z,20.63
2022-09-15T13:49:51.242Z,20.60
2022-09-15T13:52:43.271Z,20.29
2022-09-15T13:55:24.032Z,20.27
2022-09-15T14:00:56.335Z,20.46
2022-09-15T14:03:37.469Z,20.14
2022-09-15T14:06:15.414Z,20.14
2022-09-15T14:08:47.425Z,20.00
2022-09-15T14:11:22.910Z,20.05
2022-09-15T14:13:52.388Z,20.22
2022-09-15T14:16:28.446Z,20.09
2022-09-15T14:19:00.042Z,20.11
2022-09-15T14:21:31.158Z,20.25
2022-09-15T14:24:04.163Z,20.18
2022-09-15T14:26:35.766Z,20.46
2022-09-15T14:29:06.606Z,20.45
2022-09-15T14:31:40.814Z,21.39
2022-09-15T14:34:18.506Z,22.49
2022-09-15T14:36:59.205Z,23.05
2022-09-15T14:39:27.389Z,22.88
2022-09-15T14:41:55.393Z,22.31
2022-09-15T14:47:28.019Z,22.21
2022-09-15T14:50:13.279Z,22.65
2022-09-15T14:52:44.631Z,22.07
2022-09-15T14:55:19.349Z,22.14
2022-09-15T14:57:58.289Z,21.73
2022-09-15T15:00:32.091Z,21.49
2022-09-15T15:03:23.723Z,21.13
2022-09-15T15:06:02.671Z,21.04
2022-09-15T15:08:45.423Z,20.46
2022-09-15T15:11:17.892Z,20.35
2022-09-15T15:13:51.916Z,20.21
2022-09-15T15:16:24.179Z,19.97
2022-09-15T15:18:53.655Z,19.94
2022-09-15T15:21:39.272Z,20.07
2022-09-15T15:24:19.629Z,20.04
2022-09-15T15:26:48.995Z,19.98
2022-09-15T15:29:41.085Z,20.51
2022-09-15T15:32:16.258Z,20.27
2022-09-15T15:34:53.153Z,20.22
2022-09-15T15:37:29.308Z,20.07
2022-09-15T15:40:02.171Z,19.87
2022-09-15T15:42:30.247Z,20.26
2022-09-15T15:45:02.126Z,20.54
2022-09-15T15:47:35.052Z,20.49
2022-09-15T15:50:13.899Z,20.30
2022-09-15T15:52:43.998Z,20.30
2022-09-15T15:55:17.648Z,20.17
2022-09-15T15:57:50.034Z,20.02
2022-09-15T16:00:23.137Z,20.03
2022-09-15T16:02:52.055Z,19.89
2022-09-15T16:05:25.087Z,19.85
2022-09-15T16:07:59.044Z,19.82
2022-09-15T16:10:33.738Z,19.69
2022-09-15T16:13:01.564Z,19.82
2022-09-15T16:15:29.497Z,20.03
2022-09-15T16:17:57.293Z,20.34
2022-09-15T16:20:25.212Z,20.49
2022-09-15T16:22:54.646Z,20.19
2022-09-15T16:25:35.233Z,19.73
2022-09-15T16:28:04.541Z,19.69
2022-09-15T16:30:33.427Z,19.38
2022-09-15T16:33:01.895Z,19.29
2022-09-15T16:35:42.888Z,19.24
2022-09-15T16:38:12.417Z,19.07
2022-09-15T16:40:40.217Z,19.00
2022-09-15T16:43:13.661Z,18.75
2022-09-15T16:45:42.230Z,18.87
2022-09-15T16:48:10.891Z,18.79
2022-09-15T16:50:50.080Z,18.82
2022-09-15T16:53:30.930Z,18.67
2022-09-15T16:55:58.839Z,18.46
2022-09-15T16:58:26.694Z,18.38
2022-09-15T17:00:55.843Z,18.28
2022-09-15T17:03:26.704Z,18.18
2022-09-15T17:05:57.563Z,18.33
2022-09-15T17:08:29.684Z,18.39
2022-09-15T17:11:00.740Z,18.44
2022-09-15T17:13:31.685Z,18.29
2022-09-15T17:16:01.032Z,18.20
2022-09-15T17:18:30.454Z,18.14
2022-09-15T17:21:00.379Z,18.24
2022-09-15T17:23:35.698Z,18.06
2022-09-15T17:26:05.348Z,17.93
2022-09-15T17:28:36.515Z,17.96
2022-09-15T17:31:11.897Z,17.99
2022-09-15T17:33:39.924Z,18.11
2022-09-15T17:36:08.271Z,18.09
2022-09-15T17:38:37.981Z,17.96
2022-09-15T17:41:06.294Z,17.98
2022-09-15T17:43:34.516Z,17.98
2022-09-15T17:46:02.424Z,17.96
2022-09-15T17:48:30.170Z,18.01
2022-09-15T17:50:58.370Z,18.00
2022-09-15T17:53:30.623Z,18.15
2022-09-15T17:55:59.862Z,18.17
2022-09-15T17:58:29.825Z,18.13
2022-09-15T18:00:59.321Z,18.01
2022-09-15T18:03:32.603Z,17.85
2022-09-15T18:06:05.120Z,17.77
2022-09-15T18:08:34.187Z,17.94
2022-09-15T18:11:05.203Z,17.71
2022-09-15T18:13:34.440Z,17.81
2022-09-15T18:16:05.239Z,17.73
2022-09-15T18:18:34.675Z,17.69
2022-09-15T18:21:09.565Z,17.64
2022-09-15T18:23:39.055Z,17.33
2022-09-15T18:26:08.353Z,17.46
2022-09-15T18:28:36.156Z,17.26
2022-09-15T18:31:03.984Z,17.08
2022-09-15T18:33:31.844Z,17.09
2022-09-15T18:36:00.028Z,17.03
2022-09-15T18:38:27.997Z,16.90
2022-09-15T18:40:57.331Z,17.00
2022-09-15T18:43:28.374Z,17.04
2022-09-15T18:45:59.991Z,17.01
2022-09-15T18:48:29.079Z,16.89
2022-09-15T18:50:57.262Z,16.87
2022-09-15T18:53:26.335Z,16.99
2022-09-15T18:55:55.787Z,16.98
2022-09-15T18:58:24.000Z,16.95
2022-09-15T19:01:00.261Z,16.81
2022-09-15T19:03:29.417Z,16.93
2022-09-15T19:06:03.407Z,16.96
2022-09-15T19:08:31.630Z,17.01
2022-09-15T19:11:02.254Z,17.08
2022-09-15T19:13:30.517Z,17.00
2022-09-15T19:16:05.558Z,16.94
2022-09-15T19:18:35.801Z,17.14
2022-09-15T19:21:06.167Z,17.03
2022-09-15T19:23:38.154Z,16.87
2022-09-15T19:26:13.521Z,16.75
2022-09-15T19:28:41.430Z,16.96
2022-09-15T19:31:12.268Z,16.87
2022-09-15T19:33:40.308Z,16.92
2022-09-15T19:36:28.553Z,16.76
2022-09-15T19:38:57.378Z,16.59
2022-09-15T19:41:26.133Z,16.76
2022-09-15T19:43:54.511Z,16.65
2022-09-15T19:46:25.590Z,16.75
2022-09-15T19:48:54.758Z,16.48
2022-09-15T19:51:23.208Z,16.30
2022-09-15T19:53:54.678Z,16.40
2022-09-15T19:56:26.257Z,16.37
2022-09-15T19:58:57.671Z,16.50
2022-09-15T20:01:31.976Z,16.56
2022-09-15T20:04:02.008Z,16.58
2022-09-15T20:06:32.770Z,16.56
2022-09-15T20:09:01.383Z,16.69
2022-09-15T20:11:30.940Z,16.52
2022-09-15T20:14:00.682Z,16.40
2022-09-15T20:16:30.477Z,16.23
2022-09-15T20:18:58.475Z,16.24
2022-09-15T20:21:49.213Z,16.20
2022-09-15T20:24:19.039Z,16.26
2022-09-15T20:26:47.114Z,16.13
2022-09-15T20:29:15.174Z,16.13
2022-09-15T20:31:44.391Z,16.18
2022-09-15T20:34:13.535Z,16.14
2022-09-15T20:36:41.864Z,16.25
2022-09-15T20:39:13.222Z,16.17
2022-09-15T20:41:46.051Z,16.22
2022-09-15T20:44:14.645Z,16.03
2022-09-15T20:46:44.077Z,15.94
2022-09-15T20:49:12.466Z,15.83
2022-09-15T20:51:40.307Z,15.81
2022-09-15T20:54:10.741Z,15.98
2022-09-15T20:56:39.639Z,15.97
2022-09-15T20:59:10.242Z,15.91
2022-09-15T21:01:39.123Z,15.73
2022-09-15T21:04:09.937Z,15.83
2022-09-15T21:06:39.006Z,15.73
2022-09-15T21:09:07.910Z,15.76
2022-09-15T21:11:36.500Z,15.66
2022-09-15T21:14:04.864Z,15.73
2022-09-15T21:16:34.760Z,15.57
2022-09-15T21:19:02.855Z,15.66
2022-09-15T21:21:34.116Z,15.67
2022-09-15T21:24:05.303Z,15.65
2022-09-15T21:26:56.938Z,15.65
2022-09-15T21:29:25.330Z,15.60
2022-09-15T21:31:53.458Z,15.43
2022-09-15T21:34:21.362Z,15.23
2022-09-15T21:36:51.650Z,15.15
2022-09-15T21:39:19.601Z,15.00
2022-09-15T21:41:47.483Z,14.98
2022-09-15T21:44:15.647Z,14.81
2022-09-15T21:46:44.856Z,14.77
2022-09-15T21:49:12.627Z,14.72
2022-09-15T21:51:40.582Z,14.66
2022-09-15T21:54:10.643Z,14.67
2022-09-15T21:56:39.652Z,14.68
2022-09-15T21:59:08.939Z,14.53
2022-09-15T22:01:38.486Z,14.66
2022-09-15T22:04:08.275Z,14.55
2022-09-15T22:06:40.303Z,14.59
2022-09-15T22:09:14.350Z,14.65
2022-09-15T22:11:42.354Z,14.60
2022-09-15T22:14:11.885Z,14.59
2022-09-15T22:16:42.165Z,14.57
2022-09-15T22:19:12.105Z,14.55
2022-09-15T22:21:41.763Z,14.58
2022-09-15T22:24:13.383Z,14.50
2022-09-15T22:26:42.742Z,14.46
2022-09-15T22:29:11.532Z,14.40
2022-09-15T22:31:39.471Z,14.38
2022-09-15T22:34:07.498Z,14.27
2022-09-15T22:36:35.268Z,14.20
2022-09-15T22:39:05.207Z,14.07
2022-09-15T22:41:38.760Z,14.20
2022-09-15T22:44:16.577Z,14.17
2022-09-15T22:46:44.577Z,14.07
2022-09-15T22:49:12.535Z,14.16
2022-09-15T22:51:40.510Z,14.04
2022-09-15T22:54:08.348Z,14.09
2022-09-15T22:56:37.565Z,14.13
2022-09-15T22:59:05.818Z,14.04
2022-09-15T23:01:33.664Z,14.01
2022-09-15T23:04:03.332Z,14.08
2022-09-15T23:06:34.003Z,14.11
2022-09-15T23:09:06.246Z,14.11
2022-09-15T23:11:42.312Z,14.03
2022-09-15T23:14:15.272Z,14.03
2022-09-15T23:16:44.198Z,13.99
2022-09-15T23:19:13.417Z,14.05
2022-09-15T23:21:42.734Z,14.10
2022-09-15T23:24:12.405Z,14.20
2022-09-15T23:26:41.861Z,14.12
2022-09-15T23:29:10.296Z,14.09
2022-09-15T23:31:38.490Z,14.06
2022-09-15T23:34:06.432Z,14.15
2022-09-15T23:36:34.427Z,14.16
2022-09-15T23:39:04.144Z,14.18
2022-09-15T23:41:33.395Z,14.18
2022-09-15T23:44:03.262Z,14.12
2022-09-15T23:46:33.112Z,14.04
2022-09-15T23:49:00.972Z,14.12
2022-09-15T23:51:28.810Z,14.14
2022-09-15T23:53:56.549Z,14.07
2022-09-15T23:56:24.446Z,14.14
2022-09-15T23:58:52.334Z,14.14
